Terminal Aerodrome Forecast
Issued by NWS

Current Version | Previous Version | Text Only | Print | Product List | Glossary On
Versions: 1 2 3 4 5 6 7 8 9 10 11 12 13 14 15 16 17 18 19 20 21 22 23 24 25 26 27 28
600
FTUS45 KCYS 121720
TAFAIA
TAF
KAIA 121720Z 1218/1318 05007KT P6SM OVC003
      TEMPO 1218/1221 4SM BR OVC011
     FM122100 12007KT 4SM BR OVC015
     FM130100 16013KT 2SM BR OVC009
     FM131600 21008KT P6SM OVC025=

USA.gov is the U.S. government's official web portal to all federal, state and local government web resources and services.